createdAt,value
2018-07-06T00:00:47.664Z,67.10
2018-07-06T00:03:41.010Z,66.70
2018-07-06T00:06:34.168Z,67.10
2018-07-06T00:09:27.635Z,67.60
2018-07-06T00:12:20.959Z,66.80
2018-07-06T00:15:14.104Z,68.10
2018-07-06T00:18:07.255Z,67.70
2018-07-06T00:21:00.882Z,67.90
2018-07-06T00:23:54.111Z,68.30
2018-07-06T00:26:47.424Z,68.30
2018-07-06T00:29:40.826Z,69.00
2018-07-06T00:32:34.307Z,69.00
2018-07-06T00:35:27.721Z,68.70
2018-07-06T00:38:21.337Z,68.50
2018-07-06T00:41:14.628Z,68.40
2018-07-06T00:44:07.998Z,68.80
2018-07-06T00:47:01.576Z,68.30
2018-07-06T00:49:55.058Z,68.50
2018-07-06T00:52:48.442Z,67.60
2018-07-06T00:55:41.895Z,67.00
2018-07-06T00:58:35.286Z,66.00
2018-07-06T01:01:28.782Z,66.30
2018-07-06T01:04:22.160Z,66.00
2018-07-06T01:07:15.379Z,66.10
2018-07-06T01:10:08.631Z,66.40
2018-07-06T01:13:02.883Z,66.20
2018-07-06T01:15:56.428Z,66.50
2018-07-06T01:18:49.610Z,66.50
2018-07-06T01:21:42.900Z,66.40
2018-07-06T01:24:35.976Z,66.50
2018-07-06T01:27:29.245Z,66.70
2018-07-06T01:30:22.608Z,66.90
2018-07-06T01:33:15.968Z,66.50
2018-07-06T01:36:09.248Z,66.80
2018-07-06T01:39:02.465Z,67.10
2018-07-06T01:41:55.931Z,67.60
2018-07-06T01:44:49.136Z,67.80
2018-07-06T01:47:42.503Z,68.00
2018-07-06T01:50:35.756Z,68.60
2018-07-06T01:53:29.167Z,68.70
2018-07-06T01:56:22.524Z,68.50
2018-07-06T01:59:16.008Z,69.00
2018-07-06T02:02:09.219Z,69.50
2018-07-06T02:05:02.413Z,69.70
2018-07-06T02:10:43.160Z,69.70
2018-07-06T02:13:36.311Z,70.10
2018-07-06T02:16:29.905Z,70.20
2018-07-06T02:19:23.287Z,70.40
2018-07-06T02:22:16.436Z,70.40
2018-07-06T02:25:09.803Z,70.50
2018-07-06T02:28:03.199Z,71.10
2018-07-06T02:30:57.553Z,70.90
2018-07-06T02:33:50.840Z,71.20
2018-07-06T02:36:44.183Z,71.30
2018-07-06T02:39:37.615Z,71.30
2018-07-06T02:42:30.735Z,71.50
2018-07-06T02:45:24.191Z,71.20
2018-07-06T02:48:17.529Z,71.30
2018-07-06T02:51:10.677Z,71.30
2018-07-06T02:54:03.904Z,71.50
2018-07-06T02:56:57.388Z,71.50
2018-07-06T02:59:50.701Z,71.70
2018-07-06T03:02:43.899Z,71.60
2018-07-06T03:05:37.337Z,71.00
2018-07-06T03:08:30.697Z,71.80
2018-07-06T03:11:24.078Z,71.80
2018-07-06T03:14:17.467Z,71.50
2018-07-06T03:17:11.681Z,71.30
2018-07-06T03:20:05.000Z,71.20
2018-07-06T03:22:58.229Z,70.90
2018-07-06T03:25:51.483Z,71.10
2018-07-06T03:28:45.200Z,71.20
2018-07-06T03:31:38.347Z,71.50
2018-07-06T03:34:31.680Z,71.30
2018-07-06T03:37:25.014Z,70.60
2018-07-06T03:40:18.156Z,70.60
2018-07-06T03:43:11.316Z,70.40
2018-07-06T03:46:05.493Z,70.70
2018-07-06T03:48:58.834Z,70.40
2018-07-06T03:51:51.816Z,70.40
2018-07-06T03:54:45.114Z,70.60
2018-07-06T03:57:38.440Z,70.40
2018-07-06T04:00:31.764Z,70.50
2018-07-06T04:03:25.079Z,70.50
2018-07-06T04:06:18.091Z,70.30
2018-07-06T04:09:11.379Z,70.20
2018-07-06T04:12:04.622Z,70.40
2018-07-06T04:14:57.850Z,70.40
2018-07-06T04:17:51.347Z,70.40
2018-07-06T04:20:44.604Z,70.50
2018-07-06T04:23:37.903Z,70.40
2018-07-06T04:26:31.339Z,70.80
2018-07-06T04:29:24.658Z,70.80
2018-07-06T04:32:17.914Z,70.60
2018-07-06T04:35:11.305Z,70.60
2018-07-06T04:38:04.587Z,70.70
2018-07-06T04:40:57.956Z,70.80
2018-07-06T04:43:51.270Z,71.10
2018-07-06T04:46:44.419Z,71.60
2018-07-06T04:49:37.792Z,71.30
2018-07-06T04:52:31.123Z,71.40
2018-07-06T04:55:24.482Z,71.50
2018-07-06T04:58:17.646Z,71.40
2018-07-06T05:01:11.051Z,71.50
2018-07-06T05:04:04.492Z,71.00
2018-07-06T05:06:57.712Z,70.90
2018-07-06T05:09:51.027Z,70.10
2018-07-06T05:12:44.638Z,69.10
2018-07-06T05:15:37.858Z,69.20
2018-07-06T05:18:31.275Z,68.80
2018-07-06T05:21:24.343Z,68.50
2018-07-06T05:24:17.547Z,67.40
2018-07-06T05:27:10.800Z,66.60
2018-07-06T05:30:03.880Z,65.70
2018-07-06T05:32:57.050Z,64.80
2018-07-06T05:35:50.049Z,62.00
2018-07-06T05:38:43.339Z,59.70
2018-07-06T05:41:36.436Z,58.00
2018-07-06T05:44:29.798Z,57.30
2018-07-06T05:47:23.091Z,56.50
2018-07-06T05:50:16.176Z,56.10
2018-07-06T05:53:09.276Z,55.50
2018-07-06T05:56:02.528Z,55.10
2018-07-06T05:58:55.717Z,55.00
2018-07-06T06:01:48.766Z,55.40
2018-07-06T06:04:42.033Z,56.30
2018-07-06T06:07:26.706Z,56.70
2018-07-06T06:10:02.987Z,56.50
2018-07-06T06:12:39.359Z,56.10
2018-07-06T06:15:15.734Z,55.70
2018-07-06T06:17:52.115Z,54.90
2018-07-06T06:20:28.421Z,54.00
2018-07-06T06:23:04.911Z,53.10
2018-07-06T06:25:41.446Z,52.00
2018-07-06T06:28:17.735Z,50.50
2018-07-06T06:30:54.236Z,49.40
2018-07-06T06:33:30.731Z,48.80
2018-07-06T06:36:07.055Z,48.80
2018-07-06T06:38:43.664Z,47.10
2018-07-06T06:41:20.715Z,47.90
2018-07-06T06:43:57.131Z,47.00
2018-07-06T06:46:33.505Z,47.00
2018-07-06T06:49:09.652Z,46.40
2018-07-06T06:51:46.675Z,46.50
2018-07-06T06:54:22.951Z,44.30
2018-07-06T06:56:59.544Z,45.20
2018-07-06T06:59:35.952Z,44.90
2018-07-06T07:02:12.568Z,44.00
2018-07-06T07:04:49.116Z,43.70
2018-07-06T07:07:25.863Z,43.00
2018-07-06T07:10:02.357Z,41.40
2018-07-06T07:12:38.701Z,40.90
2018-07-06T07:15:15.060Z,39.70
2018-07-06T07:17:51.539Z,39.10
2018-07-06T07:20:27.860Z,39.90
2018-07-06T07:23:04.344Z,40.20
2018-07-06T07:25:40.814Z,40.30
2018-07-06T07:28:17.412Z,39.60
2018-07-06T07:30:53.691Z,39.80
2018-07-06T07:33:30.231Z,39.10
2018-07-06T07:36:06.600Z,39.40
2018-07-06T07:38:43.180Z,38.90
2018-07-06T07:41:19.799Z,38.90
2018-07-06T07:43:56.485Z,38.80
2018-07-06T07:46:32.914Z,39.40
2018-07-06T07:49:09.256Z,39.90
2018-07-06T07:52:13.064Z,39.20
2018-07-06T07:54:51.897Z,38.40
2018-07-06T07:57:28.371Z,37.10
2018-07-06T08:00:04.959Z,38.30
2018-07-06T08:02:41.561Z,37.70
2018-07-06T08:05:18.104Z,38.60
2018-07-06T08:07:54.639Z,36.60
2018-07-06T08:10:31.313Z,37.80
2018-07-06T08:13:07.573Z,37.80
2018-07-06T08:15:43.957Z,37.90
2018-07-06T08:18:20.517Z,36.70
2018-07-06T08:20:56.780Z,36.80
2018-07-06T08:23:33.322Z,36.50
2018-07-06T08:26:09.914Z,37.40
2018-07-06T08:28:46.444Z,37.60
2018-07-06T08:31:23.058Z,37.70
2018-07-06T08:34:16.418Z,36.40
2018-07-06T08:37:41.159Z,33.00
2018-07-06T08:40:18.101Z,33.90
2018-07-06T08:43:01.741Z,35.70
2018-07-06T08:45:38.168Z,35.20
2018-07-06T08:48:14.567Z,36.50
2018-07-06T08:50:50.915Z,34.20
2018-07-06T08:53:27.515Z,35.40
2018-07-06T08:56:03.949Z,37.20
2018-07-06T08:58:40.324Z,36.30
2018-07-06T09:01:16.558Z,36.30
2018-07-06T09:03:53.009Z,36.50
2018-07-06T09:06:29.408Z,36.90
2018-07-06T09:09:06.004Z,36.70
2018-07-06T09:11:42.228Z,36.40
2018-07-06T09:14:18.725Z,36.50
2018-07-06T09:16:55.192Z,36.40
2018-07-06T09:19:31.783Z,35.30
2018-07-06T09:22:08.085Z,35.80
2018-07-06T09:24:45.169Z,35.30
2018-07-06T09:27:21.443Z,37.10
2018-07-06T09:29:58.120Z,36.20
2018-07-06T09:32:34.653Z,35.40
2018-07-06T09:35:10.944Z,35.10
2018-07-06T09:37:47.440Z,34.90
2018-07-06T09:40:23.797Z,34.50
2018-07-06T09:43:00.299Z,35.60
2018-07-06T09:45:36.504Z,35.10
2018-07-06T09:48:13.065Z,34.40
2018-07-06T09:50:49.464Z,33.90
2018-07-06T09:53:25.920Z,34.70
2018-07-06T09:56:02.420Z,33.70
2018-07-06T09:58:38.832Z,35.10
2018-07-06T10:01:15.144Z,34.70
2018-07-06T10:03:51.905Z,34.90
2018-07-06T10:06:28.480Z,36.30
2018-07-06T10:09:06.015Z,36.30
2018-07-06T10:11:42.392Z,35.60
2018-07-06T10:14:18.883Z,35.70
2018-07-06T10:16:55.476Z,36.40
2018-07-06T10:19:32.137Z,36.50
2018-07-06T10:22:08.507Z,35.30
2018-07-06T10:24:44.716Z,35.20
2018-07-06T10:27:21.346Z,36.10
2018-07-06T10:30:19.012Z,36.10
2018-07-06T10:32:55.399Z,36.80
2018-07-06T10:35:31.727Z,35.60
2018-07-06T10:38:08.236Z,35.80
2018-07-06T10:40:44.729Z,36.40
2018-07-06T10:43:21.139Z,36.40
2018-07-06T10:45:57.677Z,36.10
2018-07-06T10:48:34.185Z,35.60
2018-07-06T10:51:10.497Z,36.90
2018-07-06T10:53:46.835Z,35.10
2018-07-06T10:56:23.295Z,35.80
2018-07-06T10:58:59.865Z,35.70
2018-07-06T11:01:36.397Z,37.70
2018-07-06T11:04:13.886Z,37.00
2018-07-06T11:06:50.468Z,37.10
2018-07-06T11:09:27.487Z,37.10
2018-07-06T11:12:04.164Z,36.40
2018-07-06T11:14:40.762Z,37.00
2018-07-06T11:17:17.000Z,37.90
2018-07-06T11:19:53.344Z,38.10
2018-07-06T11:22:29.739Z,38.20
2018-07-06T11:25:06.324Z,38.70
2018-07-06T11:27:42.570Z,37.90
2018-07-06T11:30:19.055Z,36.30
2018-07-06T11:32:55.573Z,36.60
2018-07-06T11:35:32.065Z,38.00
2018-07-06T11:38:08.465Z,38.50
2018-07-06T11:40:44.716Z,37.80
2018-07-06T11:43:21.025Z,37.80
2018-07-06T11:45:57.622Z,38.70
2018-07-06T11:48:34.007Z,38.10
2018-07-06T11:51:12.575Z,38.30
2018-07-06T11:53:48.812Z,38.20
2018-07-06T11:56:25.182Z,37.30
2018-07-06T11:59:01.614Z,37.30
2018-07-06T12:01:37.988Z,36.80
2018-07-06T12:04:14.545Z,36.40
2018-07-06T12:06:50.976Z,35.10
2018-07-06T12:09:27.386Z,35.80
2018-07-06T12:12:03.873Z,34.50
2018-07-06T12:14:40.192Z,34.90
2018-07-06T12:17:16.801Z,34.80
2018-07-06T12:19:53.072Z,35.30
2018-07-06T12:22:29.564Z,34.50
2018-07-06T12:25:06.201Z,34.30
2018-07-06T12:27:42.716Z,35.40
2018-07-06T12:30:19.084Z,35.60
2018-07-06T12:32:55.553Z,35.50
2018-07-06T12:35:31.913Z,37.10
2018-07-06T12:38:08.180Z,36.30
2018-07-06T12:40:44.448Z,36.40
2018-07-06T12:43:21.307Z,36.80
2018-07-06T12:45:57.776Z,36.80
2018-07-06T12:48:34.200Z,36.10
2018-07-06T12:51:10.435Z,36.00
2018-07-06T12:53:46.697Z,36.20
2018-07-06T12:56:23.178Z,36.10
2018-07-06T12:58:59.636Z,36.00
2018-07-06T13:01:36.182Z,35.90
2018-07-06T13:04:12.624Z,35.50
2018-07-06T13:06:49.297Z,35.50
2018-07-06T13:09:25.585Z,35.40
2018-07-06T13:12:02.025Z,35.40
2018-07-06T13:14:38.379Z,35.80
2018-07-06T13:17:14.719Z,35.70
2018-07-06T13:19:51.296Z,35.60
2018-07-06T13:22:27.752Z,35.70
2018-07-06T13:25:04.403Z,35.90
2018-07-06T13:27:40.748Z,35.50
2018-07-06T13:30:17.085Z,35.10
2018-07-06T13:32:53.480Z,35.60
2018-07-06T13:35:29.915Z,36.00
2018-07-06T13:38:06.210Z,35.60
2018-07-06T13:40:42.632Z,35.50
2018-07-06T13:43:18.967Z,34.30
2018-07-06T13:45:55.248Z,35.00
2018-07-06T13:48:31.970Z,34.10
2018-07-06T13:51:08.416Z,33.70
2018-07-06T13:53:44.636Z,34.00
2018-07-06T13:58:57.199Z,34.10
2018-07-06T14:01:33.515Z,34.40
2018-07-06T14:04:09.839Z,33.90
2018-07-06T14:06:46.264Z,33.60
2018-07-06T14:09:22.670Z,33.30
2018-07-06T14:14:35.107Z,32.20
2018-07-06T14:17:11.593Z,32.40
2018-07-06T14:19:47.965Z,32.20
2018-07-06T14:22:24.399Z,30.60
2018-07-06T14:25:00.896Z,31.10
2018-07-06T14:27:37.086Z,31.40
2018-07-06T14:30:13.461Z,31.50
2018-07-06T14:32:50.671Z,31.40
2018-07-06T14:35:26.963Z,31.20
2018-07-06T14:38:03.382Z,30.70
2018-07-06T14:40:39.766Z,30.70
2018-07-06T14:43:16.128Z,31.20
2018-07-06T14:45:52.526Z,30.70
2018-07-06T14:48:29.071Z,31.10
2018-07-06T14:51:05.469Z,30.10
2018-07-06T14:53:41.835Z,30.70
2018-07-06T14:56:18.379Z,30.90
2018-07-06T14:58:54.695Z,30.60
2018-07-06T15:01:31.785Z,30.20
2018-07-06T15:04:08.332Z,30.00
2018-07-06T15:06:44.801Z,30.60
2018-07-06T15:09:21.134Z,30.40
2018-07-06T15:11:57.721Z,30.40
2018-07-06T15:14:34.104Z,29.20
2018-07-06T15:17:10.484Z,28.10
2018-07-06T15:19:46.964Z,28.50
2018-07-06T15:22:23.292Z,30.10
2018-07-06T15:24:59.653Z,31.40
2018-07-06T15:27:36.116Z,31.90
2018-07-06T15:30:12.387Z,32.80
2018-07-06T15:35:24.749Z,33.70
2018-07-06T15:38:01.311Z,33.90
2018-07-06T15:40:37.552Z,31.40
2018-07-06T15:43:14.105Z,30.30
2018-07-06T15:45:50.483Z,30.80
2018-07-06T15:48:26.956Z,31.70
2018-07-06T15:51:03.426Z,31.40
2018-07-06T15:53:39.692Z,32.10
2018-07-06T15:56:16.182Z,33.00
2018-07-06T15:58:52.684Z,33.70
2018-07-06T16:01:29.171Z,34.20
2018-07-06T16:04:05.610Z,34.70
2018-07-06T16:06:42.012Z,34.60
2018-07-06T16:09:18.473Z,35.00
2018-07-06T16:11:55.158Z,35.10
2018-07-06T16:14:31.557Z,34.90
2018-07-06T16:17:07.984Z,34.70
2018-07-06T16:19:44.389Z,34.70
2018-07-06T16:22:20.707Z,34.50
2018-07-06T16:24:57.045Z,35.00
2018-07-06T16:27:33.575Z,35.10
2018-07-06T16:30:09.961Z,35.10
2018-07-06T16:32:46.428Z,35.00
2018-07-06T16:35:22.681Z,35.40
2018-07-06T16:37:59.254Z,35.60
2018-07-06T16:40:35.523Z,35.00
2018-07-06T16:43:11.915Z,35.10
2018-07-06T16:45:48.410Z,35.40
2018-07-06T16:48:24.775Z,35.80
2018-07-06T16:51:01.552Z,35.40
2018-07-06T16:53:37.968Z,35.50
2018-07-06T16:56:15.384Z,35.70
2018-07-06T16:58:51.819Z,35.60
2018-07-06T17:01:28.368Z,35.60
2018-07-06T17:04:05.009Z,35.80
2018-07-06T17:06:41.487Z,35.70
2018-07-06T17:09:18.183Z,36.20
2018-07-06T17:11:54.628Z,35.80
2018-07-06T17:14:31.249Z,35.80
2018-07-06T17:17:07.529Z,35.40
2018-07-06T17:19:44.046Z,35.90
2018-07-06T17:22:20.312Z,36.40
2018-07-06T17:24:56.735Z,35.80
2018-07-06T17:27:33.358Z,35.50
2018-07-06T17:30:09.687Z,35.50
2018-07-06T17:32:46.078Z,35.50
2018-07-06T17:35:22.485Z,35.30
2018-07-06T17:37:59.109Z,35.20
2018-07-06T17:40:35.458Z,35.00
2018-07-06T17:43:12.041Z,34.30
2018-07-06T17:45:48.425Z,34.40
2018-07-06T17:48:24.872Z,34.70
2018-07-06T17:51:01.216Z,34.60
2018-07-06T17:53:37.817Z,35.00
2018-07-06T17:56:14.199Z,35.70
2018-07-06T17:58:50.716Z,35.60
2018-07-06T18:01:27.264Z,35.90
2018-07-06T18:04:03.638Z,35.90
2018-07-06T18:06:40.108Z,36.10
2018-07-06T18:09:16.759Z,36.60
2018-07-06T18:11:53.203Z,37.50
2018-07-06T18:14:29.598Z,36.50
2018-07-06T18:17:06.067Z,37.30
2018-07-06T18:19:42.342Z,37.40
2018-07-06T18:22:18.733Z,37.30
2018-07-06T18:24:55.048Z,37.40
2018-07-06T18:27:31.565Z,37.60
2018-07-06T18:30:07.889Z,37.70
2018-07-06T18:32:44.745Z,38.30
2018-07-06T18:35:21.235Z,38.10
2018-07-06T18:37:57.803Z,38.20
2018-07-06T18:40:34.368Z,38.10
2018-07-06T18:43:10.652Z,38.60
2018-07-06T18:45:47.113Z,38.90
2018-07-06T18:48:23.539Z,38.80
2018-07-06T18:50:59.900Z,38.70
2018-07-06T18:53:36.283Z,39.20
2018-07-06T18:56:13.084Z,38.90
2018-07-06T18:58:49.449Z,38.90
2018-07-06T19:01:25.875Z,39.50
2018-07-06T19:04:02.223Z,39.20
2018-07-06T19:06:38.537Z,39.20
2018-07-06T19:09:14.868Z,39.20
2018-07-06T19:11:51.357Z,39.30
2018-07-06T19:14:27.807Z,40.20
2018-07-06T19:17:04.363Z,40.00
2018-07-06T19:19:40.764Z,40.40
2018-07-06T19:22:17.028Z,40.30
2018-07-06T19:24:53.367Z,40.70
2018-07-06T19:27:29.861Z,41.80
2018-07-06T19:30:06.265Z,41.20
2018-07-06T19:32:43.193Z,41.20
2018-07-06T19:35:19.548Z,41.70
2018-07-06T19:37:56.127Z,42.10
2018-07-06T19:40:32.788Z,42.00
2018-07-06T19:43:09.161Z,42.20
2018-07-06T19:45:45.464Z,42.50
2018-07-06T19:48:21.912Z,43.10
2018-07-06T19:50:58.605Z,42.90
2018-07-06T19:53:34.932Z,43.10
2018-07-06T19:56:11.140Z,44.10
2018-07-06T19:58:47.536Z,43.50
2018-07-06T20:01:23.973Z,43.70
2018-07-06T20:04:00.450Z,44.10
2018-07-06T20:06:36.830Z,44.30
2018-07-06T20:09:13.324Z,44.40
2018-07-06T20:11:49.683Z,44.90
2018-07-06T20:14:26.213Z,45.10
2018-07-06T20:17:02.683Z,45.40
2018-07-06T20:19:38.182Z,45.60
2018-07-06T20:22:14.682Z,46.70
2018-07-06T20:24:52.564Z,47.20
2018-07-06T20:27:29.315Z,47.40
2018-07-06T20:30:05.966Z,47.90
2018-07-06T20:32:42.339Z,47.90
2018-07-06T20:35:18.953Z,48.30
2018-07-06T20:37:55.413Z,48.80
2018-07-06T20:43:08.004Z,49.50
2018-07-06T20:45:44.576Z,49.60
2018-07-06T20:48:20.936Z,49.70
2018-07-06T20:50:57.729Z,49.80
2018-07-06T20:53:34.056Z,50.00
2018-07-06T20:56:10.313Z,50.00
2018-07-06T20:58:46.740Z,49.90
2018-07-06T21:01:23.132Z,49.80
2018-07-06T21:03:59.431Z,49.60
2018-07-06T21:06:35.827Z,50.00
2018-07-06T21:09:12.204Z,50.40
2018-07-06T21:11:48.689Z,51.30
2018-07-06T21:14:25.064Z,51.40
2018-07-06T21:17:01.448Z,51.50
2018-07-06T21:19:37.909Z,51.50
2018-07-06T21:22:14.195Z,51.20
2018-07-06T21:24:50.631Z,51.90
2018-07-06T21:27:27.091Z,52.40
2018-07-06T21:30:03.412Z,52.50
2018-07-06T21:32:39.701Z,53.10
2018-07-06T21:35:16.169Z,53.20
2018-07-06T21:37:52.740Z,53.00
2018-07-06T21:40:29.236Z,53.50
2018-07-06T21:43:05.599Z,53.70
2018-07-06T21:45:42.029Z,53.10
2018-07-06T21:48:18.534Z,53.50
2018-07-06T21:50:54.983Z,53.80
2018-07-06T21:53:32.073Z,54.10
2018-07-06T21:56:08.683Z,54.60
2018-07-06T21:58:45.013Z,55.20
2018-07-06T22:01:21.221Z,54.30
2018-07-06T22:03:57.828Z,54.60
2018-07-06T22:06:34.270Z,54.90
2018-07-06T22:09:10.764Z,54.90
2018-07-06T22:11:47.200Z,55.30
2018-07-06T22:14:23.422Z,55.40
2018-07-06T22:16:59.930Z,55.40
2018-07-06T22:19:36.512Z,55.80
2018-07-06T22:22:12.929Z,55.40
2018-07-06T22:24:49.228Z,55.70
2018-07-06T22:27:25.677Z,55.70
2018-07-06T22:30:02.290Z,55.50
2018-07-06T22:32:38.540Z,55.30
2018-07-06T22:35:14.990Z,55.20
2018-07-06T22:37:51.436Z,55.10
2018-07-06T22:40:27.911Z,55.50
2018-07-06T22:43:04.622Z,56.30
2018-07-06T22:45:40.936Z,56.40
2018-07-06T22:48:17.846Z,56.40
2018-07-06T22:50:54.319Z,56.80
2018-07-06T22:53:30.741Z,57.00
2018-07-06T22:56:07.137Z,57.00
2018-07-06T22:58:43.600Z,57.70
2018-07-06T23:01:20.091Z,57.60
2018-07-06T23:03:56.612Z,57.90
2018-07-06T23:06:33.224Z,57.90
2018-07-06T23:09:09.551Z,57.90
2018-07-06T23:11:46.004Z,58.10
2018-07-06T23:14:22.356Z,58.30
2018-07-06T23:16:59.461Z,58.50
2018-07-06T23:19:36.048Z,58.70
2018-07-06T23:22:14.504Z,59.20
2018-07-06T23:24:50.681Z,59.20
2018-07-06T23:27:27.384Z,59.30
2018-07-06T23:30:04.017Z,59.60
2018-07-06T23:32:40.582Z,59.70
2018-07-06T23:35:16.994Z,59.90
2018-07-06T23:37:53.340Z,60.00
2018-07-06T23:40:29.952Z,59.80
2018-07-06T23:43:06.312Z,59.80
2018-07-06T23:45:42.603Z,60.50
2018-07-06T23:48:18.903Z,60.70
2018-07-06T23:50:56.065Z,59.90
2018-07-06T23:53:32.764Z,59.90
2018-07-06T23:56:09.082Z,60.80
2018-07-06T23:58:45.635Z,61.00
